sensor_id;sensor_type;location;lat;lon;timestamp;pressure;altitude;pressure_sealevel;temperature;humidity
19553;BME280;9420;50.876;7.012;2023-02-16T00:01:45;102101.94;;;10.58;100.00
19553;BME280;9420;50.876;7.012;2023-02-16T00:04:17;102117.72;;;10.61;100.00
19553;BME280;9420;50.876;7.012;2023-02-16T00:06:46;102115.94;;;10.60;100.00
19553;BME280;9420;50.876;7.012;2023-02-16T00:09:13;102104.53;;;10.66;100.00
19553;BME280;9420;50.876;7.012;2023-02-16T00:11:40;102117.81;;;10.43;100.00
19553;BME280;9420;50.876;7.012;2023-02-16T00:14:34;102115.84;;;10.75;100.00
19553;BME280;9420;50.876;7.012;2023-02-16T00:17:03;102117.56;;;10.82;100.00
19553;BME280;9420;50.876;7.012;2023-02-16T00:19:35;102112.56;;;10.46;100.00
19553;BME280;9420;50.876;7.012;2023-02-16T00:22:04;102111.53;;;10.65;100.00
19553;BME280;9420;50.876;7.012;2023-02-16T00:24:32;102105.47;;;10.57;100.00
19553;BME280;9420;50.876;7.012;2023-02-16T00:27:00;102108.88;;;10.68;100.00
19553;BME280;9420;50.876;7.012;2023-02-16T00:29:29;102107.84;;;10.89;100.00
19553;BME280;9420;50.876;7.012;2023-02-16T00:32:03;102104.41;;;10.78;100.00
19553;BME280;9420;50.876;7.012;2023-02-16T00:34:34;102101.03;;;10.64;100.00
19553;BME280;9420;50.876;7.012;2023-02-16T00:37:05;102109.00;;;10.52;100.00
19553;BME280;9420;50.876;7.012;2023-02-16T00:39:33;102101.69;;;10.88;100.00
19553;BME280;9420;50.876;7.012;2023-02-16T00:42:04;102108.91;;;10.65;100.00
19553;BME280;9420;50.876;7.012;2023-02-16T00:44:35;102101.88;;;10.64;100.00
19553;BME280;9420;50.876;7.012;2023-02-16T00:47:19;102101.94;;;10.58;100.00
19553;BME280;9420;50.876;7.012;2023-02-16T00:49:51;102099.19;;;10.73;100.00
19553;BME280;9420;50.876;7.012;2023-02-16T00:52:36;102109.00;;;10.50;100.00
19553;BME280;9420;50.876;7.012;2023-02-16T00:55:07;102099.25;;;10.64;100.00
19553;BME280;9420;50.876;7.012;2023-02-16T00:57:39;102100.25;;;10.48;100.00
19553;BME280;9420;50.876;7.012;2023-02-16T01:00:14;102102.06;;;10.37;100.00
19553;BME280;9420;50.876;7.012;2023-02-16T01:02:44;102090.34;;;10.79;100.00
19553;BME280;9420;50.876;7.012;2023-02-16T01:05:13;102090.53;;;10.56;100.00
19553;BME280;9420;50.876;7.012;2023-02-16T01:07:40;102094.63;;;10.92;99.34
19553;BME280;9420;50.876;7.012;2023-02-16T01:10:27;102089.94;;;10.12;100.00
19553;BME280;9420;50.876;7.012;2023-02-16T01:13:09;102094.25;;;10.26;100.00
19553;BME280;9420;50.876;7.012;2023-02-16T01:15:37;102086.00;;;10.73;100.00
19553;BME280;9420;50.876;7.012;2023-02-16T01:18:06;102084.38;;;10.57;100.00
19553;BME280;9420;50.876;7.012;2023-02-16T01:20:34;102082.06;;;10.18;100.00
19553;BME280;9420;50.876;7.012;2023-02-16T01:23:02;102093.47;;;10.11;100.00
19553;BME280;9420;50.876;7.012;2023-02-16T01:25:29;102088.22;;;10.03;100.00
19553;BME280;9420;50.876;7.012;2023-02-16T01:27:56;102084.56;;;10.33;100.00
19553;BME280;9420;50.876;7.012;2023-02-16T01:30:24;102072.25;;;10.35;100.00
19553;BME280;9420;50.876;7.012;2023-02-16T01:32:55;102076.78;;;10.09;100.00
19553;BME280;9420;50.876;7.012;2023-02-16T01:35:30;102080.25;;;10.18;100.00
19553;BME280;9420;50.876;7.012;2023-02-16T01:38:00;102076.53;;;10.50;100.00
19553;BME280;9420;50.876;7.012;2023-02-16T01:40:37;102070.59;;;10.23;100.00
19553;BME280;9420;50.876;7.012;2023-02-16T01:43:17;102082.88;;;10.23;100.00
19553;BME280;9420;50.876;7.012;2023-02-16T01:45:50;102070.56;;;10.28;100.00
19553;BME280;9420;50.876;7.012;2023-02-16T01:48:25;102053.91;;;10.24;100.00
19553;BME280;9420;50.876;7.012;2023-02-16T01:51:01;102068.91;;;10.09;100.00
19553;BME280;9420;50.876;7.012;2023-02-16T01:53:38;102077.69;;;10.11;100.00
19553;BME280;9420;50.876;7.012;2023-02-16T01:56:18;102070.75;;;9.95;100.00
19553;BME280;9420;50.876;7.012;2023-02-16T01:58:52;102068.06;;;10.02;100.00
19553;BME280;9420;50.876;7.012;2023-02-16T02:01:43;102072.50;;;9.90;100.00
19553;BME280;9420;50.876;7.012;2023-02-16T02:04:22;102072.63;;;9.64;100.00
19553;BME280;9420;50.876;7.012;2023-02-16T02:07:18;102068.91;;;10.15;100.00
19553;BME280;9420;50.876;7.012;2023-02-16T02:10:00;102069.13;;;9.67;100.00
19553;BME280;9420;50.876;7.012;2023-02-16T02:12:39;102070.00;;;9.72;100.00
19553;BME280;9420;50.876;7.012;2023-02-16T02:15:11;102062.84;;;9.92;100.00
19553;BME280;9420;50.876;7.012;2023-02-16T02:17:39;102066.41;;;9.86;100.00
19553;BME280;9420;50.876;7.012;2023-02-16T02:20:15;102063.75;;;9.88;100.00
19553;BME280;9420;50.876;7.012;2023-02-16T02:23:22;102060.25;;;9.83;100.00
19553;BME280;9420;50.876;7.012;2023-02-16T02:26:47;102062.03;;;9.79;100.00
19553;BME280;9420;50.876;7.012;2023-02-16T02:32:32;102060.34;;;9.74;100.00
19553;BME280;9420;50.876;7.012;2023-02-16T02:35:26;102067.22;;;9.96;100.00
19553;BME280;9420;50.876;7.012;2023-02-16T02:38:07;102062.91;;;9.84;100.00
19553;BME280;9420;50.876;7.012;2023-02-16T02:40:50;102062.22;;;9.41;100.00
19553;BME280;9420;50.876;7.012;2023-02-16T02:43:25;102054.44;;;9.08;100.00
19553;BME280;9420;50.876;7.012;2023-02-16T02:46:02;102060.41;;;9.55;100.00
19553;BME280;9420;50.876;7.012;2023-02-16T02:48:33;102062.00;;;9.87;100.00
19553;BME280;9420;50.876;7.012;2023-02-16T02:51:02;102054.94;;;9.96;100.00
19553;BME280;9420;50.876;7.012;2023-02-16T02:53:51;102040.84;;;10.05;100.00
19553;BME280;9420;50.876;7.012;2023-02-16T02:56:45;102047.28;;;9.48;100.00
19553;BME280;9420;50.876;7.012;2023-02-16T02:59:34;102039.31;;;9.68;100.00
19553;BME280;9420;50.876;7.012;2023-02-16T03:02:31;102032.22;;;9.79;100.00
19553;BME280;9420;50.876;7.012;2023-02-16T03:05:02;102048.16;;;9.54;100.00
19553;BME280;9420;50.876;7.012;2023-02-16T03:07:32;102028.50;;;10.16;100.00
19553;BME280;9420;50.876;7.012;2023-02-16T03:10:16;102034.50;;;10.41;100.00
19553;BME280;9420;50.876;7.012;2023-02-16T03:13:05;102040.72;;;10.29;99.63
19553;BME280;9420;50.876;7.012;2023-02-16T03:15:36;102033.78;;;10.19;98.91
19553;BME280;9420;50.876;7.012;2023-02-16T03:18:08;102034.19;;;9.40;100.00
19553;BME280;9420;50.876;7.012;2023-02-16T03:20:55;102034.25;;;9.19;100.00
19553;BME280;9420;50.876;7.012;2023-02-16T03:23:43;102027.09;;;9.54;100.00
19553;BME280;9420;50.876;7.012;2023-02-16T03:26:30;102030.72;;;9.26;100.00
19553;BME280;9420;50.876;7.012;2023-02-16T03:29:17;102024.41;;;9.67;100.00
19553;BME280;9420;50.876;7.012;2023-02-16T03:31:49;102028.00;;;9.52;100.00
19553;BME280;9420;50.876;7.012;2023-02-16T03:34:20;102027.03;;;9.67;100.00
19553;BME280;9420;50.876;7.012;2023-02-16T03:36:52;102031.53;;;9.46;100.00
19553;BME280;9420;50.876;7.012;2023-02-16T03:39:23;102028.84;;;9.58;100.00
19553;BME280;9420;50.876;7.012;2023-02-16T03:41:54;102033.25;;;9.52;100.00
19553;BME280;9420;50.876;7.012;2023-02-16T03:44:22;102023.50;;;9.74;100.00
19553;BME280;9420;50.876;7.012;2023-02-16T03:46:51;102019.91;;;9.93;100.00
19553;BME280;9420;50.876;7.012;2023-02-16T03:49:19;102018.19;;;9.86;100.00
19553;BME280;9420;50.876;7.012;2023-02-16T03:51:46;102016.38;;;9.94;100.00
19553;BME280;9420;50.876;7.012;2023-02-16T03:54:13;102020.84;;;9.80;100.00
19553;BME280;9420;50.876;7.012;2023-02-16T03:56:40;102011.16;;;9.88;100.00
19553;BME280;9420;50.876;7.012;2023-02-16T03:59:08;102013.84;;;9.80;100.00
19553;BME280;9420;50.876;7.012;2023-02-16T04:01:35;102009.56;;;9.56;100.00
19553;BME280;9420;50.876;7.012;2023-02-16T04:04:03;102023.56;;;9.61;100.00
19553;BME280;9420;50.876;7.012;2023-02-16T04:06:31;102016.59;;;9.54;100.00
19553;BME280;9420;50.876;7.012;2023-02-16T04:08:58;102007.91;;;9.37;100.00
19553;BME280;9420;50.876;7.012;2023-02-16T04:11:25;102022.66;;;9.64;100.00
19553;BME280;9420;50.876;7.012;2023-02-16T04:14:10;102023.66;;;9.43;100.00
19553;BME280;9420;50.876;7.012;2023-02-16T04:16:37;102034.13;;;9.49;100.00
19553;BME280;9420;50.876;7.012;2023-02-16T04:19:06;102033.28;;;9.38;100.00
19553;BME280;9420;50.876;7.012;2023-02-16T04:21:35;102028.91;;;9.43;100.00
19553;BME280;9420;50.876;7.012;2023-02-16T04:24:02;102024.72;;;8.79;100.00
19553;BME280;9420;50.876;7.012;2023-02-16T04:26:30;102030.75;;;9.23;100.00
19553;BME280;9420;50.876;7.012;2023-02-16T04:28:57;102023.84;;;8.77;100.00
19553;BME280;9420;50.876;7.012;2023-02-16T04:31:24;102017.56;;;9.35;100.00
19553;BME280;9420;50.876;7.012;2023-02-16T04:33:51;102020.16;;;9.38;100.00
19553;BME280;9420;50.876;7.012;2023-02-16T04:36:20;102027.13;;;9.45;100.00
19553;BME280;9420;50.876;7.012;2023-02-16T04:38:47;102022.72;;;9.53;100.00
19553;BME280;9420;50.876;7.012;2023-02-16T04:41:14;102020.19;;;9.29;100.00
19553;BME280;9420;50.876;7.012;2023-02-16T04:43:41;102017.63;;;9.11;100.00
19553;BME280;9420;50.876;7.012;2023-02-16T04:46:08;102018.50;;;9.19;100.00
19553;BME280;9420;50.876;7.012;2023-02-16T04:48:35;102032.41;;;9.45;100.00
19553;BME280;9420;50.876;7.012;2023-02-16T04:51:03;102024.50;;;9.45;100.00
19553;BME280;9420;50.876;7.012;2023-02-16T04:53:32;102031.56;;;9.40;100.00
19553;BME280;9420;50.876;7.012;2023-02-16T04:55:59;102013.16;;;9.40;100.00
19553;BME280;9420;50.876;7.012;2023-02-16T04:58:26;102017.66;;;8.99;100.00
19553;BME280;9420;50.876;7.012;2023-02-16T05:00:53;102018.38;;;9.43;100.00
19553;BME280;9420;50.876;7.012;2023-02-16T05:03:20;102030.78;;;9.05;100.00
19553;BME280;9420;50.876;7.012;2023-02-16T05:05:48;102029.00;;;9.19;100.00
19553;BME280;9420;50.876;7.012;2023-02-16T05:08:15;102020.16;;;9.44;100.00
19553;BME280;9420;50.876;7.012;2023-02-16T05:10:43;102021.13;;;9.19;100.00
19553;BME280;9420;50.876;7.012;2023-02-16T05:13:30;102017.56;;;9.29;100.00
19553;BME280;9420;50.876;7.012;2023-02-16T05:16:15;102019.41;;;9.11;100.00
19553;BME280;9420;50.876;7.012;2023-02-16T05:18:42;102011.53;;;8.88;100.00
19553;BME280;9420;50.876;7.012;2023-02-16T05:21:09;102021.16;;;8.95;100.00
19553;BME280;9420;50.876;7.012;2023-02-16T05:23:54;102022.00;;;9.09;100.00
19553;BME280;9420;50.876;7.012;2023-02-16T05:26:23;102022.88;;;9.14;100.00
19553;BME280;9420;50.876;7.012;2023-02-16T05:28:50;102029.09;;;8.59;100.00
19553;BME280;9420;50.876;7.012;2023-02-16T05:31:17;102020.28;;;8.95;100.00
19553;BME280;9420;50.876;7.012;2023-02-16T05:33:44;102020.31;;;8.87;100.00
19553;BME280;9420;50.876;7.012;2023-02-16T05:36:11;102021.16;;;9.04;100.00
19553;BME280;9420;50.876;7.012;2023-02-16T05:38:38;102026.38;;;9.10;100.00
19553;BME280;9420;50.876;7.012;2023-02-16T05:41:05;102032.56;;;9.00;100.00
19553;BME280;9420;50.876;7.012;2023-02-16T05:43:34;102026.38;;;9.12;100.00
19553;BME280;9420;50.876;7.012;2023-02-16T05:46:07;102023.88;;;8.65;100.00
19553;BME280;9420;50.876;7.012;2023-02-16T05:48:34;102029.09;;;8.83;100.00
19553;BME280;9420;50.876;7.012;2023-02-16T05:51:01;102023.78;;;8.95;100.00
19553;BME280;9420;50.876;7.012;2023-02-16T05:53:28;102023.78;;;8.95;100.00
19553;BME280;9420;50.876;7.012;2023-02-16T05:55:56;102025.59;;;8.81;100.00
19553;BME280;9420;50.876;7.012;2023-02-16T05:58:23;102029.00;;;9.13;100.00
19553;BME280;9420;50.876;7.012;2023-02-16T06:00:52;102028.22;;;8.90;100.00
19553;BME280;9420;50.876;7.012;2023-02-16T06:03:19;102024.63;;;9.14;100.00
19553;BME280;9420;50.876;7.012;2023-02-16T06:05:52;102027.25;;;9.21;100.00
19553;BME280;9420;50.876;7.012;2023-02-16T06:08:19;102029.09;;;8.71;100.00
19553;BME280;9420;50.876;7.012;2023-02-16T06:10:48;102029.06;;;8.92;100.00
19553;BME280;9420;50.876;7.012;2023-02-16T06:13:16;102037.78;;;9.15;100.00
19553;BME280;9420;50.876;7.012;2023-02-16T06:15:44;102030.78;;;9.08;100.00
19553;BME280;9420;50.876;7.012;2023-02-16T06:18:13;102031.66;;;9.00;100.00
19553;BME280;9420;50.876;7.012;2023-02-16T06:20:41;102026.38;;;9.10;100.00
19553;BME280;9420;50.876;7.012;2023-02-16T06:23:12;102032.53;;;8.97;100.00
19553;BME280;9420;50.876;7.012;2023-02-16T06:25:41;102029.06;;;8.98;100.00
19553;BME280;9420;50.876;7.012;2023-02-16T06:28:09;102028.97;;;9.22;100.00
19553;BME280;9420;50.876;7.012;2023-02-16T06:30:36;102025.56;;;8.78;100.00
19553;BME280;9420;50.876;7.012;2023-02-16T06:33:04;102029.91;;;9.11;100.00
19553;BME280;9420;50.876;7.012;2023-02-16T06:35:32;102027.31;;;8.94;100.00
19553;BME280;9420;50.876;7.012;2023-02-16T06:37:59;102038.63;;;9.16;100.00
19553;BME280;9420;50.876;7.012;2023-02-16T06:40:26;102024.63;;;9.14;100.00
19553;BME280;9420;50.876;7.012;2023-02-16T06:42:56;102018.44;;;9.27;100.00
19553;BME280;9420;50.876;7.012;2023-02-16T06:45:24;102024.66;;;9.11;100.00
19553;BME280;9420;50.876;7.012;2023-02-16T06:47:51;102023.72;;;9.22;100.00
19553;BME280;9420;50.876;7.012;2023-02-16T06:50:19;102026.09;;;9.84;100.00
19553;BME280;9420;50.876;7.012;2023-02-16T06:52:47;102034.91;;;9.76;100.00
19553;BME280;9420;50.876;7.012;2023-02-16T06:55:14;102041.09;;;9.63;100.00
19553;BME280;9420;50.876;7.012;2023-02-16T06:57:41;102035.69;;;9.87;100.00
19553;BME280;9420;50.876;7.012;2023-02-16T07:00:11;102028.59;;;10.01;100.00
19553;BME280;9420;50.876;7.012;2023-02-16T07:02:38;102035.63;;;9.97;100.00
19553;BME280;9420;50.876;7.012;2023-02-16T07:05:05;102039.19;;;9.95;100.00
19553;BME280;9420;50.876;7.012;2023-02-16T07:07:36;102049.69;;;9.92;100.00
19553;BME280;9420;50.876;7.012;2023-02-16T07:10:07;102039.09;;;10.13;100.00
19553;BME280;9420;50.876;7.012;2023-02-16T07:12:40;102040.81;;;10.17;100.00
19553;BME280;9420;50.876;7.012;2023-02-16T07:15:08;102035.44;;;10.32;100.00
19553;BME280;9420;50.876;7.012;2023-02-16T07:17:35;102040.66;;;10.38;100.00
19553;BME280;9420;50.876;7.012;2023-02-16T07:20:03;102042.53;;;10.24;100.00
19553;BME280;9420;50.876;7.012;2023-02-16T07:22:30;102042.78;;;10.94;98.38
19553;BME280;9420;50.876;7.012;2023-02-16T07:24:58;102055.28;;;10.71;98.40
19553;BME280;9420;50.876;7.012;2023-02-16T07:27:27;102041.94;;;10.90;98.18
19553;BME280;9420;50.876;7.012;2023-02-16T07:29:54;102043.72;;;10.85;98.15
19553;BME280;9420;50.876;7.012;2023-02-16T07:32:21;102042.00;;;10.84;99.14
19553;BME280;9420;50.876;7.012;2023-02-16T07:34:48;102033.19;;;10.85;98.87
19553;BME280;9420;50.876;7.012;2023-02-16T07:37:15;102036.09;;;10.58;100.00
19553;BME280;9420;50.876;7.012;2023-02-16T07:39:42;102045.91;;;10.38;100.00
19553;BME280;9420;50.876;7.012;2023-02-16T07:42:09;102044.41;;;11.04;99.13
19553;BME280;9420;50.876;7.012;2023-02-16T07:44:39;102040.25;;;10.83;98.84
19553;BME280;9420;50.876;7.012;2023-02-16T07:47:06;102039.25;;;10.93;99.24
19553;BME280;9420;50.876;7.012;2023-02-16T07:49:33;102039.78;;;11.29;96.85
19553;BME280;9420;50.876;7.012;2023-02-16T07:52:00;102033.91;;;11.02;96.70
19553;BME280;9420;50.876;7.012;2023-02-16T07:54:27;102034.88;;;10.95;97.76
19553;BME280;9420;50.876;7.012;2023-02-16T07:56:54;102038.22;;;11.09;97.07
19553;BME280;9420;50.876;7.012;2023-02-16T07:59:21;102035.41;;;11.23;96.33
19553;BME280;9420;50.876;7.012;2023-02-16T08:01:50;102038.22;;;11.09;98.37
19553;BME280;9420;50.876;7.012;2023-02-16T08:04:17;102036.06;;;11.42;96.33
19553;BME280;9420;50.876;7.012;2023-02-16T08:06:45;102042.41;;;11.27;97.00
19553;BME280;9420;50.876;7.012;2023-02-16T08:09:13;102033.84;;;11.07;98.78
19553;BME280;9420;50.876;7.012;2023-02-16T08:11:42;102041.56;;;11.24;99.32
19553;BME280;9420;50.876;7.012;2023-02-16T08:14:09;102035.94;;;11.54;97.12
19553;BME280;9420;50.876;7.012;2023-02-16T08:16:37;102039.06;;;11.13;97.60
19553;BME280;9420;50.876;7.012;2023-02-16T08:19:05;102031.28;;;11.77;96.23
19553;BME280;9420;50.876;7.012;2023-02-16T08:21:34;102032.88;;;11.88;95.54
19553;BME280;9420;50.876;7.012;2023-02-16T08:24:06;102033.94;;;11.74;97.06
19553;BME280;9420;50.876;7.012;2023-02-16T08:26:37;102035.94;;;11.54;97.29
19553;BME280;9420;50.876;7.012;2023-02-16T08:29:06;102033.94;;;11.74;96.64
19553;BME280;9420;50.876;7.012;2023-02-16T08:31:35;102027.69;;;11.82;95.18
19553;BME280;9420;50.876;7.012;2023-02-16T08:34:05;102023.22;;;11.86;95.73
19553;BME280;9420;50.876;7.012;2023-02-16T08:36:35;102023.06;;;11.98;94.86
19553;BME280;9420;50.876;7.012;2023-02-16T08:39:09;102019.88;;;11.75;95.82
19553;BME280;9420;50.876;7.012;2023-02-16T08:41:37;102014.00;;;12.14;93.85
19553;BME280;9420;50.876;7.012;2023-02-16T08:44:06;102031.34;;;11.71;96.64
19553;BME280;9420;50.876;7.012;2023-02-16T08:46:37;102033.47;;;12.07;95.52
19553;BME280;9420;50.876;7.012;2023-02-16T08:49:07;102021.13;;;12.09;95.04
19553;BME280;9420;50.876;7.012;2023-02-16T08:51:41;102030.59;;;12.22;93.58
19553;BME280;9420;50.876;7.012;2023-02-16T08:54:15;102026.38;;;12.11;94.00
19553;BME280;9420;50.876;7.012;2023-02-16T08:56:44;102033.03;;;12.34;92.99
19553;BME280;9420;50.876;7.012;2023-02-16T08:59:14;102028.72;;;12.30;93.11
19553;BME280;9420;50.876;7.012;2023-02-16T09:01:42;102027.34;;;12.60;92.93
19553;BME280;9420;50.876;7.012;2023-02-16T09:04:12;102029.63;;;12.29;93.13
19553;BME280;9420;50.876;7.012;2023-02-16T09:06:43;102022.97;;;12.57;92.71
19553;BME280;9420;50.876;7.012;2023-02-16T09:09:11;102020.19;;;12.66;90.94
19553;BME280;9420;50.876;7.012;2023-02-16T09:11:39;102023.31;;;12.87;92.12
19553;BME280;9420;50.876;7.012;2023-02-16T09:14:07;102030.50;;;12.82;91.16
19553;BME280;9420;50.876;7.012;2023-02-16T09:16:36;102035.94;;;12.72;91.67
19553;BME280;9420;50.876;7.012;2023-02-16T09:19:05;102041.72;;;12.94;91.66
19553;BME280;9420;50.876;7.012;2023-02-16T09:21:33;102036.44;;;12.44;94.24
19553;BME280;9420;50.876;7.012;2023-02-16T09:24:02;102043.53;;;12.92;92.85
19553;BME280;9420;50.876;7.012;2023-02-16T09:26:32;102034.91;;;12.81;92.91
19553;BME280;9420;50.876;7.012;2023-02-16T09:29:00;102033.91;;;12.87;91.57
19553;BME280;9420;50.876;7.012;2023-02-16T09:31:31;102027.47;;;13.03;92.20
19553;BME280;9420;50.876;7.012;2023-02-16T09:34:02;102027.94;;;12.77;93.22
19553;BME280;9420;50.876;7.012;2023-02-16T09:36:30;102030.63;;;12.72;94.85
19553;BME280;9420;50.876;7.012;2023-02-16T09:38:59;102029.78;;;13.21;92.38
19553;BME280;9420;50.876;7.012;2023-02-16T09:41:36;102025.31;;;14.05;88.52
19553;BME280;9420;50.876;7.012;2023-02-16T09:44:17;102023.91;;;14.63;85.42
19553;BME280;9420;50.876;7.012;2023-02-16T09:46:49;102031.81;;;14.27;84.72
19553;BME280;9420;50.876;7.012;2023-02-16T09:49:29;102025.28;;;14.77;83.50
19553;BME280;9420;50.876;7.012;2023-02-16T09:52:03;102029.06;;;15.33;83.24
19553;BME280;9420;50.876;7.012;2023-02-16T09:54:44;102022.50;;;15.46;80.32
19553;BME280;9420;50.876;7.012;2023-02-16T09:57:22;102031.41;;;15.45;81.20
19553;BME280;9420;50.876;7.012;2023-02-16T10:00:03;102028.75;;;15.74;79.98
19553;BME280;9420;50.876;7.012;2023-02-16T10:02:45;102037.09;;;15.62;80.37
19553;BME280;9420;50.876;7.012;2023-02-16T10:05:21;102038.28;;;16.09;78.55
19553;BME280;9420;50.876;7.012;2023-02-16T10:07:59;102035.03;;;15.72;79.42
19553;BME280;9420;50.876;7.012;2023-02-16T10:10:39;102033.41;;;16.51;76.97
19553;BME280;9420;50.876;7.012;2023-02-16T10:13:19;102043.56;;;15.52;79.49
19553;BME280;9420;50.876;7.012;2023-02-16T10:15:50;102041.47;;;15.63;79.12
19553;BME280;9420;50.876;7.012;2023-02-16T10:18:27;102044.72;;;15.42;80.57
19553;BME280;9420;50.876;7.012;2023-02-16T10:20:59;102043.06;;;15.70;80.02
19553;BME280;9420;50.876;7.012;2023-02-16T10:23:41;102042.75;;;15.18;81.82
19553;BME280;9420;50.876;7.012;2023-02-16T10:26:21;102042.09;;;15.73;80.76
19553;BME280;9420;50.876;7.012;2023-02-16T10:28:54;102041.41;;;15.66;82.41
19553;BME280;9420;50.876;7.012;2023-02-16T10:31:30;102032.50;;;15.97;81.60
19553;BME280;9420;50.876;7.012;2023-02-16T10:34:16;102036.78;;;15.73;81.66
19553;BME280;9420;50.876;7.012;2023-02-16T10:37:18;102032.75;;;15.89;81.99
19553;BME280;9420;50.876;7.012;2023-02-16T10:39:56;102037.44;;;15.79;80.77
19553;BME280;9420;50.876;7.012;2023-02-16T10:42:37;102046.66;;;15.68;81.67
19553;BME280;9420;50.876;7.012;2023-02-16T10:45:20;102038.25;;;16.11;80.23
19553;BME280;9420;50.876;7.012;2023-02-16T10:47:51;102033.06;;;16.34;80.76
19553;BME280;9420;50.876;7.012;2023-02-16T10:50:25;102030.53;;;16.57;79.55
19553;BME280;9420;50.876;7.012;2023-02-16T10:52:57;102030.03;;;16.72;78.47
19553;BME280;9420;50.876;7.012;2023-02-16T10:55:28;102027.72;;;16.63;77.91
19553;BME280;9420;50.876;7.012;2023-02-16T10:58:00;102023.97;;;16.15;81.91
19553;BME280;9420;50.876;7.012;2023-02-16T11:00:47;102024.13;;;16.09;82.57
19553;BME280;9420;50.876;7.012;2023-02-16T11:03:22;102025.09;;;16.34;81.72
19553;BME280;9420;50.876;7.012;2023-02-16T11:05:51;102024.97;;;16.64;79.14
19553;BME280;9420;50.876;7.012;2023-02-16T11:08:20;102019.25;;;17.51;75.79
19553;BME280;9420;50.876;7.012;2023-02-16T11:10:51;102006.31;;;17.86;74.29
19553;BME280;9420;50.876;7.012;2023-02-16T11:13:32;102002.28;;;17.28;77.10
19553;BME280;9420;50.876;7.012;2023-02-16T11:16:10;101996.09;;;17.03;77.37
19553;BME280;9420;50.876;7.012;2023-02-16T11:18:42;101999.13;;;16.94;78.34
19553;BME280;9420;50.876;7.012;2023-02-16T11:21:11;101990.97;;;16.48;79.91
19553;BME280;9420;50.876;7.012;2023-02-16T11:23:40;101992.75;;;16.98;78.43
19553;BME280;9420;50.876;7.012;2023-02-16T11:26:22;101991.00;;;16.97;80.15
19553;BME280;9420;50.876;7.012;2023-02-16T11:28:52;101988.72;;;17.11;78.46
19553;BME280;9420;50.876;7.012;2023-02-16T11:31:27;101990.47;;;16.88;79.67
19553;BME280;9420;50.876;7.012;2023-02-16T11:34:00;101979.19;;;16.81;79.47
19553;BME280;9420;50.876;7.012;2023-02-16T11:36:32;101983.75;;;17.02;78.75
19553;BME280;9420;50.876;7.012;2023-02-16T11:39:04;101981.13;;;17.25;77.96
19553;BME280;9420;50.876;7.012;2023-02-16T11:41:34;101981.63;;;17.35;79.07
19553;BME280;9420;50.876;7.012;2023-02-16T11:44:24;101973.94;;;17.74;77.38
19553;BME280;9420;50.876;7.012;2023-02-16T11:46:52;101981.13;;;17.25;79.81
19553;BME280;9420;50.876;7.012;2023-02-16T11:49:29;101970.94;;;17.13;78.60
19553;BME280;9420;50.876;7.012;2023-02-16T11:51:57;101964.78;;;17.34;78.27
19553;BME280;9420;50.876;7.012;2023-02-16T11:54:25;101940.66;;;17.39;80.03
19553;BME280;9420;50.876;7.012;2023-02-16T11:57:04;101954.53;;;17.01;80.42
19553;BME280;9420;50.876;7.012;2023-02-16T11:59:37;101947.16;;;17.07;83.05
19553;BME280;9420;50.876;7.012;2023-02-16T12:02:38;101938.59;;;16.99;86.10
19553;BME280;9420;50.876;7.012;2023-02-16T12:05:27;101942.56;;;17.12;86.51
19553;BME280;9420;50.876;7.012;2023-02-16T12:08:25;101943.28;;;17.17;85.70
19553;BME280;9420;50.876;7.012;2023-02-16T12:11:09;101945.47;;;17.29;86.60
19553;BME280;9420;50.876;7.012;2023-02-16T12:13:51;101924.13;;;17.54;86.65
19553;BME280;9420;50.876;7.012;2023-02-16T12:16:34;101926.66;;;17.34;86.81
19553;BME280;9420;50.876;7.012;2023-02-16T12:19:20;101924.97;;;17.08;90.43
19553;BME280;9420;50.876;7.012;2023-02-16T12:22:04;101924.88;;;16.87;93.29
19553;BME280;9420;50.876;7.012;2023-02-16T12:24:47;101908.88;;;17.34;90.92
19553;BME280;9420;50.876;7.012;2023-02-16T12:27:22;101915.88;;;17.37;91.68
19553;BME280;9420;50.876;7.012;2023-02-16T12:30:02;101909.91;;;17.30;92.64
19553;BME280;9420;50.876;7.012;2023-02-16T12:32:55;101918.13;;;17.47;92.77
19553;BME280;9420;50.876;7.012;2023-02-16T12:35:48;101908.63;;;17.64;93.18
19553;BME280;9420;50.876;7.012;2023-02-16T12:38:33;101916.56;;;17.65;94.20
19553;BME280;9420;50.876;7.012;2023-02-16T12:41:15;101935.06;;;17.23;95.71
19553;BME280;9420;50.876;7.012;2023-02-16T12:43:52;101930.63;;;17.69;95.21
19553;BME280;9420;50.876;7.012;2023-02-16T12:46:27;101929.06;;;17.85;91.78
19553;BME280;9420;50.876;7.012;2023-02-16T12:49:05;101924.44;;;17.90;92.06
19553;BME280;9420;50.876;7.012;2023-02-16T12:51:44;101914.66;;;17.45;93.94
19553;BME280;9420;50.876;7.012;2023-02-16T12:54:19;101912.97;;;17.88;93.75
19553;BME280;9420;50.876;7.012;2023-02-16T12:56:56;101904.28;;;18.04;92.11
19553;BME280;9420;50.876;7.012;2023-02-16T12:59:37;101905.91;;;18.08;91.51
19553;BME280;9420;50.876;7.012;2023-02-16T13:02:14;101909.72;;;18.23;91.78
19553;BME280;9420;50.876;7.012;2023-02-16T13:04:49;101913.81;;;18.10;91.21
19553;BME280;9420;50.876;7.012;2023-02-16T13:07:29;101899.72;;;18.28;89.11
19553;BME280;9420;50.876;7.012;2023-02-16T13:10:03;101888.00;;;18.32;89.10
19553;BME280;9420;50.876;7.012;2023-02-16T13:12:38;101876.84;;;18.22;91.55
19553;BME280;9420;50.876;7.012;2023-02-16T13:15:13;101873.00;;;18.30;92.51
19553;BME280;9420;50.876;7.012;2023-02-16T13:17:47;101862.78;;;18.19;93.53
19553;BME280;9420;50.876;7.012;2023-02-16T13:20:20;101862.09;;;18.14;93.31
19553;BME280;9420;50.876;7.012;2023-02-16T13:23:14;101867.72;;;18.08;95.06
19553;BME280;9420;50.876;7.012;2023-02-16T13:26:13;101863.97;;;18.12;97.37
19553;BME280;9420;50.876;7.012;2023-02-16T13:32:17;101860.91;;;18.41;94.84
19553;BME280;9420;50.876;7.012;2023-02-16T13:35:31;101866.56;;;18.55;97.97
19553;BME280;9420;50.876;7.012;2023-02-16T13:38:22;101867.72;;;18.08;100.00